createdAt,value
2023-08-11T00:00:24.727Z,102045.66
2023-08-11T00:02:51.837Z,102040.38
2023-08-11T00:05:19.694Z,102055.59
2023-08-11T00:07:47.813Z,102046.69
2023-08-11T00:10:14.402Z,102052.16
2023-08-11T00:12:41.003Z,102055.72
2023-08-11T00:15:08.154Z,102048.44
2023-08-11T00:17:35.225Z,102045.84
2023-08-11T00:20:02.091Z,102044.91
2023-08-11T00:22:28.867Z,102049.41
2023-08-11T00:24:55.481Z,102043.00
2023-08-11T00:27:22.452Z,102048.47
2023-08-11T00:29:49.168Z,102041.41
2023-08-11T00:32:15.769Z,102044.84
2023-08-11T00:34:42.350Z,102046.63
2023-08-11T00:37:09.932Z,102046.56
2023-08-11T00:39:36.925Z,102043.00
2023-08-11T00:42:03.701Z,102048.47
2023-08-11T00:44:30.270Z,102041.47
2023-08-11T00:46:58.032Z,102039.69
2023-08-11T00:49:25.049Z,102041.53
2023-08-11T00:51:52.051Z,102045.09
2023-08-11T00:54:18.886Z,102043.41
2023-08-11T00:56:46.029Z,102036.31
2023-08-11T00:59:17.000Z,102038.84
2023-08-11T01:01:43.619Z,102034.53
2023-08-11T01:04:10.370Z,102025.34
2023-08-11T01:07:02.549Z,102017.31
2023-08-11T01:09:42.159Z,102021.69
2023-08-11T01:12:28.518Z,102019.09
2023-08-11T01:15:35.165Z,102023.47
2023-08-11T01:18:04.425Z,102018.31
2023-08-11T01:20:32.056Z,102015.53
2023-08-11T01:23:00.996Z,102014.53
2023-08-11T01:25:27.641Z,102013.72
2023-08-11T01:27:56.897Z,102012.03
2023-08-11T01:30:24.683Z,102013.78
2023-08-11T01:32:54.385Z,102013.78
2023-08-11T01:35:33.729Z,102012.94
2023-08-11T01:38:07.343Z,102011.28
2023-08-11T01:40:34.148Z,102001.31
2023-08-11T01:43:03.134Z,102003.91
2023-08-11T01:45:29.908Z,102002.25
2023-08-11T01:47:56.928Z,101995.19
2023-08-11T01:50:23.985Z,101993.47
2023-08-11T01:52:53.134Z,101996.25
2023-08-11T01:55:19.778Z,101995.13
2023-08-11T01:57:57.704Z,101997.88
2023-08-11T02:00:27.003Z,101996.09
2023-08-11T02:02:53.857Z,101997.09
2023-08-11T02:05:20.743Z,101992.47
2023-08-11T02:07:47.402Z,101996.09
2023-08-11T02:10:14.041Z,101998.00
2023-08-11T02:12:41.688Z,102002.44
2023-08-11T02:15:08.781Z,102000.63
2023-08-11T02:17:38.914Z,101991.63
2023-08-11T02:20:22.579Z,101988.97
2023-08-11T02:22:50.889Z,101985.41
2023-08-11T02:25:17.673Z,101986.41
2023-08-11T02:27:45.070Z,101984.63
2023-08-11T02:30:12.761Z,101988.16
2023-08-11T02:32:41.309Z,101986.41
2023-08-11T02:35:08.576Z,101986.34
2023-08-11T02:37:35.265Z,101977.44
2023-08-11T02:40:01.965Z,101968.38
2023-08-11T02:42:28.629Z,101975.56
2023-08-11T02:44:55.241Z,101976.59
2023-08-11T02:47:22.077Z,101958.59
2023-08-11T02:49:49.040Z,101958.53
2023-08-11T02:52:15.850Z,101959.47
2023-08-11T02:54:42.901Z,101961.22
2023-08-11T02:57:09.559Z,101960.25
2023-08-11T02:59:36.190Z,101956.75
2023-08-11T03:02:03.365Z,101954.09
2023-08-11T03:04:30.136Z,101947.78
2023-08-11T03:06:56.913Z,101957.75
2023-08-11T03:09:23.516Z,101941.50
2023-08-11T03:11:50.142Z,101948.84
2023-08-11T03:14:16.748Z,101953.34
2023-08-11T03:16:43.355Z,101958.56
2023-08-11T03:19:10.007Z,101953.22
2023-08-11T03:21:38.113Z,101959.47
2023-08-11T03:24:05.597Z,101948.69
2023-08-11T03:26:32.167Z,101959.53
2023-08-11T03:28:58.772Z,101957.81
2023-08-11T03:31:25.349Z,101956.03
2023-08-11T03:33:51.934Z,101959.53
2023-08-11T03:36:18.568Z,101966.72
2023-08-11T03:38:45.244Z,101972.09
2023-08-11T03:41:11.869Z,101960.63
2023-08-11T03:43:38.485Z,101963.38
2023-08-11T03:46:05.145Z,101953.44
2023-08-11T03:48:31.838Z,101959.75
2023-08-11T03:51:02.366Z,101955.34
2023-08-11T03:53:30.736Z,101959.69
2023-08-11T03:55:57.343Z,101950.78
2023-08-11T03:58:24.696Z,101957.22
2023-08-11T04:00:51.405Z,101961.59
2023-08-11T04:03:18.882Z,101950.91
2023-08-11T04:05:45.633Z,101960.78
2023-08-11T04:08:12.593Z,101963.47
2023-08-11T04:10:39.413Z,101965.38
2023-08-11T04:13:06.087Z,101960.78
2023-08-11T04:15:32.777Z,101956.34
2023-08-11T04:18:02.472Z,101952.84
2023-08-11T04:20:30.084Z,101952.91
2023-08-11T04:22:57.251Z,101956.53
2023-08-11T04:25:24.858Z,101945.66
2023-08-11T04:27:51.426Z,101942.00
2023-08-11T04:30:18.998Z,101945.63
2023-08-11T04:32:46.080Z,101940.16
2023-08-11T04:35:12.795Z,101934.88
2023-08-11T04:37:40.287Z,101935.84
2023-08-11T04:40:10.678Z,101940.25
2023-08-11T04:42:38.176Z,101932.22
2023-08-11T04:45:05.176Z,101939.38
2023-08-11T04:47:31.783Z,101942.91
2023-08-11T04:49:58.428Z,101929.53
2023-08-11T04:52:25.026Z,101934.91
2023-08-11T04:54:52.178Z,101933.00
2023-08-11T04:57:18.805Z,101935.78
2023-08-11T04:59:46.947Z,101924.06
2023-08-11T05:02:14.075Z,101925.03
2023-08-11T05:04:41.984Z,101925.88
2023-08-11T05:07:08.753Z,101922.38
2023-08-11T05:09:39.391Z,101920.56
2023-08-11T05:12:06.471Z,101926.09
2023-08-11T05:14:33.419Z,101920.69
2023-08-11T05:17:02.247Z,101920.66
2023-08-11T05:19:32.645Z,101926.06
2023-08-11T05:21:59.303Z,101926.06
2023-08-11T05:24:25.903Z,101928.78
2023-08-11T05:26:52.526Z,101921.56
2023-08-11T05:29:19.159Z,101918.00
2023-08-11T05:31:45.802Z,101920.66
2023-08-11T05:34:12.429Z,101921.59
2023-08-11T05:36:39.010Z,101914.38
2023-08-11T05:39:06.886Z,101921.63
2023-08-11T05:41:33.513Z,101926.09
2023-08-11T05:44:00.155Z,101920.66
2023-08-11T05:46:26.825Z,101922.53
2023-08-11T05:48:53.456Z,101917.09
2023-08-11T05:51:20.334Z,101918.94
2023-08-11T05:53:48.222Z,101924.25
2023-08-11T05:56:15.604Z,101909.88
2023-08-11T05:58:42.580Z,101913.47
2023-08-11T06:01:11.067Z,101913.47
2023-08-11T06:03:37.783Z,101917.09
2023-08-11T06:06:08.576Z,101913.47
2023-08-11T06:08:35.347Z,101913.47
2023-08-11T06:11:02.051Z,101919.78
2023-08-11T06:13:28.775Z,101919.78
2023-08-11T06:15:55.642Z,101914.34
2023-08-11T06:18:22.269Z,101909.88
2023-08-11T06:20:48.954Z,101907.97
2023-08-11T06:23:15.557Z,101909.88
2023-08-11T06:25:42.920Z,101900.91
2023-08-11T06:28:09.618Z,101904.38
2023-08-11T06:30:36.226Z,101905.38
2023-08-11T06:33:04.297Z,101901.69
2023-08-11T06:35:31.190Z,101900.75
2023-08-11T06:37:58.424Z,101896.25
2023-08-11T06:40:25.052Z,101900.75
2023-08-11T06:42:51.728Z,101898.88
2023-08-11T06:45:19.197Z,101898.03
2023-08-11T06:47:45.842Z,101904.28
2023-08-11T06:50:12.485Z,101907.88
2023-08-11T06:52:39.144Z,101903.41
2023-08-11T06:55:06.471Z,101900.66
2023-08-11T06:57:33.293Z,101907.78
2023-08-11T07:00:00.063Z,101913.16
2023-08-11T07:02:26.810Z,101902.44
2023-08-11T07:04:53.459Z,101911.41
2023-08-11T07:07:20.064Z,101916.69
2023-08-11T07:09:46.976Z,101905.94
2023-08-11T07:12:13.557Z,101920.47
2023-08-11T07:14:40.259Z,101909.44
2023-08-11T07:17:06.978Z,101914.13
2023-08-11T07:19:34.457Z,101914.00
2023-08-11T07:22:01.071Z,101916.81
2023-08-11T07:24:28.047Z,101914.13
2023-08-11T07:26:54.630Z,101918.53
2023-08-11T07:29:21.224Z,101913.13
2023-08-11T07:31:47.841Z,101909.50
2023-08-11T07:34:14.544Z,101905.94
2023-08-11T07:36:41.896Z,101906.84
2023-08-11T07:39:21.811Z,101913.13
2023-08-11T07:41:49.994Z,101906.78
2023-08-11T07:44:16.871Z,101911.28
2023-08-11T07:46:43.585Z,101912.13
2023-08-11T07:49:10.316Z,101910.34
2023-08-11T07:51:37.108Z,101909.41
2023-08-11T07:54:04.028Z,101902.16
2023-08-11T07:56:30.673Z,101902.16
2023-08-11T07:58:57.348Z,101899.56
2023-08-11T08:01:25.595Z,101902.16
2023-08-11T08:03:52.358Z,101905.69
2023-08-11T08:06:19.173Z,101908.34
2023-08-11T08:08:45.898Z,101907.47
2023-08-11T08:11:12.648Z,101906.56
2023-08-11T08:13:39.333Z,101905.56
2023-08-11T08:16:06.102Z,101905.50
2023-08-11T08:18:33.610Z,101900.00
2023-08-11T08:21:00.197Z,101897.22
2023-08-11T08:23:26.768Z,101896.22
2023-08-11T08:25:53.410Z,101894.31
2023-08-11T08:28:20.045Z,101897.88
2023-08-11T08:30:47.126Z,101899.72
2023-08-11T08:33:13.809Z,101888.91
2023-08-11T08:35:40.561Z,101888.81
2023-08-11T08:38:07.164Z,101879.75
2023-08-11T08:40:35.718Z,101892.34
2023-08-11T08:43:04.570Z,101896.81
2023-08-11T08:45:35.942Z,101884.97
2023-08-11T08:48:07.570Z,101886.53
2023-08-11T08:50:34.576Z,101882.84
2023-08-11T08:53:02.398Z,101872.00
2023-08-11T08:55:29.053Z,101877.41
2023-08-11T08:57:56.338Z,101874.69
2023-08-11T09:00:24.219Z,101877.13
2023-08-11T09:02:52.277Z,101880.81
2023-08-11T09:05:19.165Z,101872.63
2023-08-11T09:07:45.773Z,101875.28
2023-08-11T09:10:12.591Z,101875.03
2023-08-11T09:12:39.182Z,101875.03
2023-08-11T09:15:13.324Z,101878.59
2023-08-11T09:17:40.685Z,101868.56
2023-08-11T09:20:11.218Z,101872.13
2023-08-11T09:22:39.426Z,101872.03
2023-08-11T09:25:06.709Z,101875.75
2023-08-11T09:27:33.869Z,101867.44
2023-08-11T09:30:00.962Z,101871.81
2023-08-11T09:32:27.884Z,101863.72
2023-08-11T09:34:54.712Z,101869.81
2023-08-11T09:37:21.394Z,101873.34
2023-08-11T09:39:50.211Z,101864.25
2023-08-11T09:42:17.574Z,101864.22
2023-08-11T09:44:45.015Z,101868.56
2023-08-11T09:47:17.735Z,101870.25
2023-08-11T09:49:49.693Z,101874.72
2023-08-11T09:52:16.513Z,101868.44
2023-08-11T09:54:44.957Z,101870.09
2023-08-11T09:57:13.813Z,101870.84
2023-08-11T09:59:41.344Z,101871.63
2023-08-11T10:02:13.975Z,101856.09
2023-08-11T10:04:45.186Z,101866.06
2023-08-11T10:07:14.436Z,101862.50
2023-08-11T10:09:42.976Z,101868.00
2023-08-11T10:12:09.855Z,101859.19
2023-08-11T10:14:37.941Z,101864.66
2023-08-11T10:17:04.879Z,101858.06
2023-08-11T10:19:32.268Z,101863.69
2023-08-11T10:22:00.603Z,101864.66
2023-08-11T10:24:27.390Z,101853.84
2023-08-11T10:26:54.219Z,101865.44
2023-08-11T10:29:21.097Z,101858.34
2023-08-11T10:31:56.015Z,101865.16
2023-08-11T10:34:24.269Z,101857.00
2023-08-11T10:36:53.826Z,101861.72
2023-08-11T10:39:21.539Z,101858.94
2023-08-11T10:41:48.757Z,101856.78
2023-08-11T10:44:19.700Z,101858.19
2023-08-11T10:46:47.530Z,101851.16
2023-08-11T10:49:14.842Z,101854.69
2023-08-11T10:51:42.613Z,101857.84
2023-08-11T10:54:12.362Z,101846.09
2023-08-11T10:56:43.576Z,101848.81
2023-08-11T10:59:12.836Z,101851.38
2023-08-11T11:01:47.990Z,101846.69
2023-08-11T11:04:15.717Z,101848.63
2023-08-11T11:06:42.889Z,101846.72
2023-08-11T11:09:09.473Z,101846.41
2023-08-11T11:11:37.922Z,101842.94
2023-08-11T11:14:05.625Z,101837.53
2023-08-11T11:16:33.840Z,101835.56
2023-08-11T11:19:05.096Z,101848.28
2023-08-11T11:21:31.769Z,101828.56
2023-08-11T11:23:59.227Z,101840.16
2023-08-11T11:26:27.804Z,101835.56
2023-08-11T11:28:55.612Z,101835.31
2023-08-11T11:31:23.358Z,101837.16
2023-08-11T11:33:51.177Z,101840.91
2023-08-11T11:36:19.748Z,101830.09
2023-08-11T11:38:46.660Z,101833.44
2023-08-11T11:41:14.330Z,101829.81
2023-08-11T11:43:41.117Z,101825.22
2023-08-11T11:46:17.309Z,101831.38
2023-08-11T11:48:49.920Z,101824.94
2023-08-11T11:51:17.899Z,101816.56
2023-08-11T11:53:45.352Z,101821.03
2023-08-11T11:56:16.184Z,101822.66
2023-08-11T11:58:50.092Z,101824.31
2023-08-11T12:01:22.041Z,101826.91
2023-08-11T12:03:50.224Z,101820.81
2023-08-11T12:06:21.467Z,101817.91
2023-08-11T12:08:51.469Z,101811.47
2023-08-11T12:11:25.601Z,101813.13
2023-08-11T12:13:52.531Z,101823.91
2023-08-11T12:16:19.665Z,101817.63
2023-08-11T12:18:46.393Z,101822.97
2023-08-11T12:21:13.855Z,101816.44
2023-08-11T12:23:40.436Z,101820.69
2023-08-11T12:26:08.852Z,101819.78
2023-08-11T12:28:35.487Z,101810.44
2023-08-11T12:31:04.404Z,101809.63
2023-08-11T12:33:31.191Z,101806.00
2023-08-11T12:35:57.944Z,101811.41
2023-08-11T12:38:24.535Z,101815.72
2023-08-11T12:40:51.101Z,101816.50
2023-08-11T12:43:17.996Z,101821.94
2023-08-11T12:45:48.535Z,101811.09
2023-08-11T12:48:16.064Z,101812.59
2023-08-11T12:50:42.921Z,101809.59
2023-08-11T12:53:09.830Z,101810.88
2023-08-11T12:55:38.462Z,101812.94
2023-08-11T12:58:05.853Z,101812.16
2023-08-11T13:00:33.013Z,101813.72
2023-08-11T13:02:59.692Z,101807.97
2023-08-11T13:05:27.503Z,101806.50
2023-08-11T13:07:55.278Z,101798.22
2023-08-11T13:10:22.492Z,101800.00
2023-08-11T13:12:50.112Z,101809.94
2023-08-11T13:15:17.095Z,101798.00
2023-08-11T13:17:45.754Z,101808.75
2023-08-11T13:20:13.614Z,101800.00
2023-08-11T13:22:43.392Z,101801.00
2023-08-11T13:25:10.861Z,101796.28
2023-08-11T13:27:38.365Z,101789.91
2023-08-11T13:30:15.178Z,101790.91
2023-08-11T13:32:43.188Z,101800.63
2023-08-11T13:35:10.319Z,101781.38
2023-08-11T13:37:36.990Z,101792.88
2023-08-11T13:40:06.419Z,101796.44
2023-08-11T13:42:33.136Z,101787.59
2023-08-11T13:44:59.831Z,101790.88
2023-08-11T13:47:26.510Z,101790.78
2023-08-11T13:49:54.332Z,101779.91
2023-08-11T13:52:20.907Z,101778.84
2023-08-11T13:54:58.560Z,101775.19
2023-08-11T13:57:25.941Z,101777.84
2023-08-11T13:59:54.752Z,101776.97
2023-08-11T14:02:21.365Z,101767.75
2023-08-11T14:04:48.047Z,101783.28
2023-08-11T14:07:28.267Z,101776.06
2023-08-11T14:09:56.511Z,101766.03
2023-08-11T14:12:23.179Z,101773.97
2023-08-11T14:14:49.789Z,101773.28
2023-08-11T14:17:16.444Z,101780.19
2023-08-11T14:19:43.102Z,101781.25
2023-08-11T14:22:09.993Z,101777.47
2023-08-11T14:24:36.816Z,101779.38
2023-08-11T14:27:03.495Z,101786.59
2023-08-11T14:29:30.096Z,101774.88
2023-08-11T14:32:06.305Z,101778.31
2023-08-11T14:34:40.786Z,101771.59
2023-08-11T14:37:07.683Z,101776.28
2023-08-11T14:39:34.500Z,101768.97
2023-08-11T14:42:01.097Z,101770.75
2023-08-11T14:44:27.700Z,101761.69
2023-08-11T14:46:54.504Z,101770.50
2023-08-11T14:49:21.212Z,101756.94
2023-08-11T14:51:49.505Z,101757.69
2023-08-11T14:54:16.186Z,101752.38
2023-08-11T14:56:43.136Z,101751.41
2023-08-11T14:59:09.721Z,101754.91
2023-08-11T15:01:36.375Z,101760.25
2023-08-11T15:04:03.064Z,101761.28
2023-08-11T15:06:29.664Z,101760.34
2023-08-11T15:08:56.268Z,101762.25
2023-08-11T15:11:22.870Z,101766.84
2023-08-11T15:13:49.483Z,101762.97
2023-08-11T15:16:16.095Z,101762.03
2023-08-11T15:18:42.712Z,101763.72
2023-08-11T15:21:09.512Z,101770.03
2023-08-11T15:23:37.102Z,101770.97
2023-08-11T15:26:04.956Z,101766.53
2023-08-11T15:28:32.246Z,101770.97
2023-08-11T15:31:00.517Z,101764.59
2023-08-11T15:33:27.445Z,101758.31
2023-08-11T15:35:54.538Z,101761.03
2023-08-11T15:38:22.583Z,101765.53
2023-08-11T15:40:49.498Z,101761.88
2023-08-11T15:43:16.664Z,101754.56
2023-08-11T15:45:43.259Z,101749.13
2023-08-11T15:48:10.050Z,101754.56
2023-08-11T15:50:37.396Z,101741.03
2023-08-11T15:53:04.764Z,101743.81
2023-08-11T15:55:36.603Z,101744.72
2023-08-11T15:58:04.390Z,101749.38
2023-08-11T16:00:31.648Z,101753.03
2023-08-11T16:02:58.354Z,101753.03
2023-08-11T16:05:25.115Z,101747.72
2023-08-11T16:07:51.692Z,101750.50
2023-08-11T16:10:18.442Z,101754.91
2023-08-11T16:12:45.083Z,101756.00
2023-08-11T16:15:13.272Z,101757.78
2023-08-11T16:17:40.589Z,101759.66
2023-08-11T16:20:07.931Z,101757.88
2023-08-11T16:22:34.890Z,101764.16
2023-08-11T16:25:02.796Z,101766.03
2023-08-11T16:27:32.913Z,101769.56
2023-08-11T16:30:00.044Z,101761.44
2023-08-11T16:32:26.737Z,101762.38
2023-08-11T16:34:53.404Z,101756.09
2023-08-11T16:37:21.106Z,101753.28
2023-08-11T16:39:47.750Z,101755.84
2023-08-11T16:42:15.249Z,101761.28
2023-08-11T16:44:43.215Z,101762.25
2023-08-11T16:47:09.854Z,101766.63
2023-08-11T16:49:36.453Z,101769.25
2023-08-11T16:52:03.436Z,101771.91
2023-08-11T16:54:30.685Z,101770.97
2023-08-11T16:56:58.348Z,101769.19
2023-08-11T16:59:25.180Z,101768.31
2023-08-11T17:01:51.911Z,101765.53
2023-08-11T17:04:18.787Z,101768.22
2023-08-11T17:06:45.407Z,101774.53
2023-08-11T17:09:12.071Z,101785.28
2023-08-11T17:11:38.673Z,101769.91
2023-08-11T17:14:05.279Z,101767.19
2023-08-11T17:16:32.006Z,101766.31
2023-08-11T17:18:58.847Z,101769.09
2023-08-11T17:21:25.512Z,101760.00
2023-08-11T17:23:58.324Z,101773.50
2023-08-11T17:26:24.965Z,101776.28
2023-08-11T17:28:55.600Z,101776.38
2023-08-11T17:31:23.713Z,101778.84
2023-08-11T17:33:50.395Z,101776.28
2023-08-11T17:36:16.980Z,101771.56
2023-08-11T17:38:43.655Z,101770.16
2023-08-11T17:41:10.626Z,101772.03
2023-08-11T17:43:37.263Z,101778.56
2023-08-11T17:46:04.055Z,101777.59
2023-08-11T17:48:30.833Z,101778.66
2023-08-11T17:50:57.486Z,101773.47
2023-08-11T17:53:24.165Z,101770.81
2023-08-11T17:55:50.993Z,101782.66
2023-08-11T17:58:17.581Z,101777.13
2023-08-11T18:00:44.257Z,101776.81
2023-08-11T18:03:10.919Z,101776.94
2023-08-11T18:05:40.778Z,101776.94
2023-08-11T18:08:08.060Z,101785.63
2023-08-11T18:10:38.100Z,101772.13
2023-08-11T18:13:05.484Z,101779.59
2023-08-11T18:15:32.120Z,101782.31
2023-08-11T18:17:58.852Z,101784.00
2023-08-11T18:20:26.347Z,101784.09
2023-08-11T18:22:52.999Z,101791.16
2023-08-11T18:25:19.770Z,101794.84
2023-08-11T18:27:46.370Z,101794.97
2023-08-11T18:30:13.029Z,101794.97
2023-08-11T18:32:39.632Z,101796.84
2023-08-11T18:35:07.281Z,101785.16
2023-08-11T18:37:33.918Z,101788.59
2023-08-11T18:40:00.752Z,101791.53
2023-08-11T18:42:27.947Z,101793.53
2023-08-11T18:44:54.583Z,101790.00
2023-08-11T18:47:22.523Z,101794.53
2023-08-11T18:49:49.279Z,101793.00
2023-08-11T18:52:16.006Z,101790.09
2023-08-11T18:54:42.866Z,101796.53
2023-08-11T18:57:13.487Z,101801.88
2023-08-11T18:59:40.942Z,101803.75
2023-08-11T19:02:08.069Z,101793.91
2023-08-11T19:04:34.957Z,101801.97
2023-08-11T19:07:01.549Z,101798.41
2023-08-11T19:09:28.214Z,101800.16
2023-08-11T19:11:54.806Z,101804.09
2023-08-11T19:14:22.046Z,101799.56
2023-08-11T19:16:48.639Z,101798.66
2023-08-11T19:19:17.249Z,101803.22
2023-08-11T19:21:44.993Z,101806.00
2023-08-11T19:24:12.908Z,101810.50
2023-08-11T19:26:41.647Z,101820.41
2023-08-11T19:29:08.457Z,101808.66
2023-08-11T19:31:35.302Z,101798.75
2023-08-11T19:34:02.026Z,101810.50
2023-08-11T19:36:28.623Z,101805.06
2023-08-11T19:38:55.278Z,101807.63
2023-08-11T19:41:22.161Z,101805.00
2023-08-11T19:43:48.786Z,101804.19
2023-08-11T19:46:15.420Z,101801.50
2023-08-11T19:48:42.175Z,101811.56
2023-08-11T19:51:10.342Z,101808.66
2023-08-11T19:53:36.979Z,101814.13
2023-08-11T19:56:03.721Z,101813.34
2023-08-11T19:58:30.299Z,101809.66
2023-08-11T20:00:57.198Z,101810.63
2023-08-11T20:03:24.124Z,101817.06
2023-08-11T20:05:50.860Z,101830.38
2023-08-11T20:08:17.552Z,101818.78
2023-08-11T20:10:48.530Z,101823.22
2023-08-11T20:13:15.354Z,101825.84
2023-08-11T20:15:43.594Z,101825.91
2023-08-11T20:18:10.390Z,101821.34
2023-08-11T20:20:37.131Z,101813.19
2023-08-11T20:23:03.956Z,101817.22
2023-08-11T20:25:31.937Z,101807.38
2023-08-11T20:27:59.315Z,101813.72
2023-08-11T20:30:26.007Z,101811.94
2023-08-11T20:32:53.461Z,101809.16
2023-08-11T20:35:20.268Z,101806.53
2023-08-11T20:37:46.904Z,101796.44
2023-08-11T20:40:13.594Z,101784.75
2023-08-11T20:42:40.293Z,101780.25
2023-08-11T20:45:07.449Z,101780.25
2023-08-11T20:47:34.076Z,101774.94
2023-08-11T20:50:00.736Z,101771.41
2023-08-11T20:52:27.384Z,101772.28
2023-08-11T20:54:54.083Z,101776.81
2023-08-11T20:57:21.773Z,101782.34
2023-08-11T20:59:49.834Z,101771.50
2023-08-11T21:02:16.479Z,101777.16
2023-08-11T21:04:43.093Z,101774.44
2023-08-11T21:07:09.956Z,101772.69
2023-08-11T21:09:37.520Z,101768.19
2023-08-11T21:12:04.323Z,101766.44
2023-08-11T21:14:31.086Z,101764.72
2023-08-11T21:17:00.401Z,101763.00
2023-08-11T21:19:30.137Z,101768.44
2023-08-11T21:21:56.759Z,101764.88
2023-08-11T21:24:23.502Z,101768.53
2023-08-11T21:26:50.148Z,101769.47
2023-08-11T21:29:16.875Z,101764.09
2023-08-11T21:31:44.667Z,101761.44
2023-08-11T21:34:11.328Z,101765.97
2023-08-11T21:36:38.486Z,101765.03
2023-08-11T21:39:08.985Z,101758.75
2023-08-11T21:41:36.208Z,101759.69
2023-08-11T21:44:03.877Z,101766.03
2023-08-11T21:46:31.427Z,101760.69
2023-08-11T21:48:58.334Z,101761.69
2023-08-11T21:51:24.934Z,101750.81
2023-08-11T21:53:51.515Z,101751.69
2023-08-11T21:56:19.622Z,101752.69
2023-08-11T21:58:46.238Z,101745.50
2023-08-11T22:01:12.968Z,101750.03
2023-08-11T22:03:39.637Z,101753.63
2023-08-11T22:06:06.308Z,101740.06
2023-08-11T22:08:32.970Z,101746.56
2023-08-11T22:10:59.610Z,101743.84
2023-08-11T22:13:26.230Z,101734.88
2023-08-11T22:15:52.841Z,101732.16
2023-08-11T22:18:20.357Z,101731.22
2023-08-11T22:20:46.956Z,101715.94
2023-08-11T22:23:13.540Z,101716.81
2023-08-11T22:25:40.677Z,101716.91
2023-08-11T22:28:07.651Z,101720.56
2023-08-11T22:30:35.853Z,101711.47
2023-08-11T22:33:03.053Z,101713.22
2023-08-11T22:35:29.761Z,101720.66
2023-08-11T22:37:57.511Z,101726.28
2023-08-11T22:40:24.112Z,101724.44
2023-08-11T22:42:50.686Z,101731.50
2023-08-11T22:45:17.380Z,101733.19
2023-08-11T22:47:44.062Z,101735.28
2023-08-11T22:50:11.460Z,101735.28
2023-08-11T22:52:38.038Z,101734.66
2023-08-11T22:55:04.868Z,101733.72
2023-08-11T22:57:31.485Z,101726.59
2023-08-11T22:59:58.203Z,101732.16
2023-08-11T23:02:25.386Z,101722.97
2023-08-11T23:04:55.387Z,101733.00
2023-08-11T23:07:24.176Z,101722.25
2023-08-11T23:09:50.988Z,101728.59
2023-08-11T23:12:17.679Z,101724.22
2023-08-11T23:14:44.319Z,101720.59
2023-08-11T23:17:13.701Z,101730.44
2023-08-11T23:19:42.124Z,101728.81
2023-08-11T23:22:08.727Z,101738.88
2023-08-11T23:24:35.352Z,101724.38
2023-08-11T23:27:02.278Z,101719.75
2023-08-11T23:29:28.983Z,101723.31
2023-08-11T23:31:55.659Z,101705.56
2023-08-11T23:34:22.288Z,101709.13
2023-08-11T23:36:48.904Z,101704.50
2023-08-11T23:39:15.511Z,101704.50
2023-08-11T23:41:42.117Z,101703.56
2023-08-11T23:44:08.728Z,101704.63
2023-08-11T23:46:35.408Z,101701.91
2023-08-11T23:49:01.993Z,101703.63
2023-08-11T23:51:28.812Z,101711.00
2023-08-11T23:53:57.477Z,101709.34
2023-08-11T23:56:24.238Z,101713.81
2023-08-11T23:58:51.360Z,101720.25
